Time;durP1;ratioP1;P1;durP2;ratioP2;P2;SDS_P1;SDS_P2;PMS_P1;PMS_P2;Temp;Humidity;BMP_temperature;BMP_pressure;BME280_temperature;BME280_humidity;BME280_pressure;Samples;Min_cycle;Max_cycle;Signal;HPM_P1;HPM_P2
2022/07/23 00:00:33;;;;;;;8.40;4.78;;;14.70;99.90;;;;;;5033956;28;20099;-67
2022/07/23 00:02:59;;;;;;;7.68;5.10;;;14.80;99.90;;;;;;5050132;28;20102;-70
2022/07/23 00:05:25;;;;;;;10.45;5.13;;;14.70;99.90;;;;;;5066485;28;20048;-66
2022/07/23 00:07:51;;;;;;;9.95;5.32;;;14.70;99.90;;;;;;5083712;28;20107;-68
2022/07/23 00:10:17;;;;;;;8.05;4.88;;;14.70;99.90;;;;;;5066642;28;20052;-66
2022/07/23 00:12:44;;;;;;;7.75;5.07;;;14.70;99.90;;;;;;5083564;28;20053;-66
2022/07/23 00:15:10;;;;;;;7.43;5.60;;;14.70;99.90;;;;;;5083171;28;20049;-68
2022/07/23 00:17:36;;;;;;;9.65;5.43;;;14.70;99.90;;;;;;5033795;28;20059;-66
2022/07/23 00:20:03;;;;;;;8.15;5.32;;;14.70;99.90;;;;;;5033660;28;20049;-67
2022/07/23 00:22:29;;;;;;;11.55;4.78;;;14.70;99.90;;;;;;5033556;28;20041;-67
2022/07/23 00:24:56;;;;;;;7.47;4.35;;;14.70;99.90;;;;;;5032834;28;20450;-67
2022/07/23 00:27:23;;;;;;;5.15;3.72;;;14.70;99.90;;;;;;5083659;28;20052;-66
2022/07/23 00:29:49;;;;;;;6.20;3.90;;;14.70;99.90;;;;;;5085928;28;20049;-66
2022/07/23 00:32:15;;;;;;;5.25;4.35;;;14.80;99.90;;;;;;5070698;28;20099;-66
2022/07/23 00:34:41;;;;;;;6.97;3.47;;;14.80;99.90;;;;;;5069731;28;20061;-66
2022/07/23 00:37:08;;;;;;;4.65;3.63;;;14.80;99.90;;;;;;5070690;28;20045;-66
2022/07/23 00:39:34;;;;;;;6.40;3.45;;;14.70;99.90;;;;;;5087488;28;20045;-68
2022/07/23 00:42:00;;;;;;;7.43;3.70;;;14.70;99.90;;;;;;5087149;28;20524;-66
2022/07/23 00:44:28;;;;;;;8.27;4.00;;;14.70;99.90;;;;;;5036791;28;20053;-66
2022/07/23 00:46:57;;;;;;;4.32;3.50;;;14.70;99.90;;;;;;5037327;28;20514;-66
2022/07/23 00:49:25;;;;;;;4.22;3.10;;;14.70;99.90;;;;;;5087247;28;20041;-67
2022/07/23 00:51:51;;;;;;;6.57;3.20;;;14.70;99.90;;;;;;5070401;28;20045;-67
2022/07/23 00:54:18;;;;;;;9.65;3.58;;;14.70;99.90;;;;;;5087054;28;20517;-70
2022/07/23 00:56:45;;;;;;;7.55;3.45;;;14.70;99.90;;;;;;5053604;28;20048;-68
2022/07/23 00:59:11;;;;;;;5.25;3.47;;;14.60;99.90;;;;;;5053467;28;20098;-68
2022/07/23 01:01:38;;;;;;;5.43;3.20;;;14.60;99.90;;;;;;5037252;28;20057;-67
2022/07/23 01:04:04;;;;;;;7.05;3.40;;;14.60;99.90;;;;;;5036551;28;20053;-68
2022/07/23 01:06:35;;;;;;;8.40;3.97;;;14.60;99.90;;;;;;5086640;28;20087;-68
2022/07/23 01:09:01;;;;;;;8.07;3.83;;;14.60;99.90;;;;;;5086860;28;20055;-67
2022/07/23 01:11:27;;;;;;;6.15;3.42;;;14.50;99.90;;;;;;5053436;28;20053;-67
2022/07/23 01:13:53;;;;;;;7.82;4.05;;;14.50;99.90;;;;;;5086488;28;20414;-66
2022/07/23 01:16:19;;;;;;;5.60;3.80;;;14.50;99.90;;;;;;5052870;28;20113;-66
2022/07/23 01:18:45;;;;;;;7.22;4.03;;;14.50;99.90;;;;;;5086748;28;20048;-67
2022/07/23 01:21:15;;;;;;;7.90;4.15;;;14.50;99.90;;;;;;5053031;28;20041;-67
2022/07/23 01:23:41;;;;;;;5.32;3.63;;;14.50;99.90;;;;;;5053200;28;20148;-70
2022/07/23 01:26:07;;;;;;;6.32;3.80;;;14.40;99.90;;;;;;5086334;28;20052;-66
2022/07/23 01:28:33;;;;;;;5.60;3.90;;;14.40;99.90;;;;;;5069541;28;20395;-69
2022/07/23 01:30:59;;;;;;;7.90;3.83;;;14.30;99.90;;;;;;5086564;28;20461;-67
2022/07/23 01:33:25;;;;;;;7.10;3.75;;;14.40;99.90;;;;;;5086507;28;20461;-68
2022/07/23 01:35:50;;;;;;;7.00;3.97;;;14.30;99.90;;;;;;5048546;28;20057;-66
2022/07/23 01:38:16;;;;;;;8.95;3.90;;;14.30;99.90;;;;;;5036388;28;20053;-66
2022/07/23 01:40:42;;;;;;;7.22;3.83;;;14.30;99.90;;;;;;5051791;28;20475;-66
2022/07/23 01:43:08;;;;;;;5.15;3.55;;;14.20;99.90;;;;;;5052891;28;20060;-66
2022/07/23 01:45:34;;;;;;;8.07;4.05;;;14.20;99.90;;;;;;5068975;28;20144;-69
2022/07/23 01:48:00;;;;;;;5.80;3.97;;;14.10;99.90;;;;;;5052550;28;20084;-66
2022/07/23 01:50:26;;;;;;;10.52;4.55;;;14.10;99.90;;;;;;5036061;28;20088;-66
2022/07/23 01:52:52;;;;;;;6.55;4.18;;;14.00;99.90;;;;;;5052139;28;20045;-66
2022/07/23 01:55:18;;;;;;;8.00;3.95;;;13.80;99.90;;;;;;5085475;28;20059;-66
2022/07/23 01:57:44;;;;;;;7.75;4.25;;;13.70;99.90;;;;;;5086005;28;20045;-66
2022/07/23 02:00:10;;;;;;;8.35;4.72;;;13.70;99.90;;;;;;5085742;28;20056;-68
2022/07/23 02:02:36;;;;;;;10.05;4.28;;;13.60;99.90;;;;;;5052444;28;20049;-66
2022/07/23 02:05:02;;;;;;;9.23;3.70;;;13.60;99.90;;;;;;5051870;28;20045;-66
2022/07/23 02:07:28;;;;;;;6.95;4.38;;;13.50;99.90;;;;;;5085432;28;20052;-66
2022/07/23 02:09:54;;;;;;;8.13;4.72;;;13.50;99.90;;;;;;5035728;28;20128;-68
2022/07/23 02:12:20;;;;;;;5.82;3.67;;;13.40;99.90;;;;;;5068872;28;20452;-67
2022/07/23 02:14:46;;;;;;;6.93;3.90;;;13.30;99.90;;;;;;5035129;28;20049;-66
2022/07/23 02:17:12;;;;;;;6.53;4.30;;;13.20;99.90;;;;;;5052006;28;20479;-66
2022/07/23 02:19:38;;;;;;;7.55;4.32;;;13.10;99.90;;;;;;5051786;28;20505;-66
2022/07/23 02:22:04;;;;;;;7.93;4.50;;;13.00;99.90;;;;;;5068627;28;20056;-66
2022/07/23 02:24:30;;;;;;;6.68;4.20;;;13.00;99.90;;;;;;5085143;28;20044;-67
2022/07/23 02:26:55;;;;;;;7.72;4.30;;;12.90;99.90;;;;;;5085194;28;20402;-67
2022/07/23 02:29:21;;;;;;;8.55;4.43;;;12.90;99.90;;;;;;5084942;28;20061;-67
2022/07/23 02:31:47;;;;;;;9.18;4.90;;;12.90;99.90;;;;;;5085097;28;20490;-66
2022/07/23 02:34:13;;;;;;;7.28;4.43;;;12.90;99.90;;;;;;5095968;28;20051;-66
2022/07/23 02:36:39;;;;;;;6.90;4.50;;;12.80;99.90;;;;;;5037379;28;20429;-66
2022/07/23 02:39:05;;;;;;;18.67;4.20;;;12.80;99.90;;;;;;5085400;28;20052;-66
2022/07/23 02:41:31;;;;;;;5.00;3.75;;;12.70;99.90;;;;;;5084955;28;20394;-67
2022/07/23 02:43:57;;;;;;;4.65;3.80;;;12.60;99.90;;;;;;5034990;28;20049;-67
2022/07/23 02:46:23;;;;;;;8.18;3.88;;;12.50;99.90;;;;;;5084603;28;20119;-67
2022/07/23 02:48:49;;;;;;;6.50;4.55;;;12.50;99.90;;;;;;5051471;28;20079;-67
2022/07/23 02:51:15;;;;;;;8.65;4.65;;;12.50;99.90;;;;;;5084879;28;20128;-66
2022/07/23 02:53:41;;;;;;;5.57;4.30;;;12.60;99.90;;;;;;5034726;28;20049;-67
2022/07/23 02:56:07;;;;;;;7.53;4.03;;;12.50;99.90;;;;;;5033923;28;20045;-67
2022/07/23 02:58:33;;;;;;;7.97;4.53;;;12.40;99.90;;;;;;5084885;28;20050;-67
2022/07/23 03:00:59;;;;;;;6.85;4.45;;;12.40;99.90;;;;;;5067827;28;20107;-67
2022/07/23 03:03:25;;;;;;;5.60;3.80;;;12.30;99.90;;;;;;5084880;28;20483;-66
2022/07/23 03:05:51;;;;;;;6.78;4.60;;;12.30;99.90;;;;;;5067303;28;20059;-66
2022/07/23 03:08:17;;;;;;;7.90;4.68;;;12.30;99.90;;;;;;5067801;28;20524;-68
2022/07/23 03:10:43;;;;;;;7.78;4.88;;;12.30;99.90;;;;;;5050897;28;20049;-66
2022/07/23 03:13:09;;;;;;;7.57;4.00;;;12.40;99.90;;;;;;5052211;28;20053;-67
2022/07/23 03:15:35;;;;;;;5.07;3.60;;;12.30;99.90;;;;;;5083733;28;20045;-67
2022/07/23 03:18:01;;;;;;;7.45;4.03;;;12.20;99.90;;;;;;5034508;28;20083;-67
2022/07/23 03:20:27;;;;;;;7.13;3.95;;;12.20;99.90;;;;;;5084378;28;20075;-68
2022/07/23 03:22:54;;;;;;;8.32;4.15;;;12.10;99.90;;;;;;5084071;28;20521;-67
2022/07/23 03:25:20;;;;;;;6.00;3.50;;;12.10;99.90;;;;;;5033553;28;20061;-68
2022/07/23 03:27:49;;;;;;;9.50;4.20;;;12.10;99.90;;;;;;5083787;28;20076;-67
2022/07/23 03:30:15;;;;;;;5.88;4.50;;;12.10;99.90;;;;;;5049998;28;20394;-66
2022/07/23 03:32:41;;;;;;;13.18;5.15;;;12.10;99.90;;;;;;5066495;28;20095;-67
2022/07/23 03:35:08;;;;;;;9.25;5.10;;;12.10;99.90;;;;;;5045616;28;20060;-66
2022/07/23 03:37:34;;;;;;;8.10;4.57;;;12.20;99.90;;;;;;5083520;28;20068;-67
2022/07/23 03:40:00;;;;;;;7.75;5.40;;;12.20;99.90;;;;;;5066177;28;20091;-68
2022/07/23 03:42:27;;;;;;;10.95;4.68;;;12.30;99.90;;;;;;5084624;28;20053;-67
2022/07/23 03:44:53;;;;;;;9.65;5.20;;;12.30;99.90;;;;;;5033665;28;20128;-66
2022/07/23 03:47:21;;;;;;;6.95;5.20;;;12.30;99.90;;;;;;5083978;28;20134;-66
2022/07/23 03:49:48;;;;;;;9.52;5.38;;;12.30;99.90;;;;;;5083929;28;20044;-66
2022/07/23 03:52:15;;;;;;;5.32;4.30;;;12.30;99.90;;;;;;5034000;28;20445;-67
2022/07/23 03:54:41;;;;;;;6.35;4.20;;;12.30;99.90;;;;;;5083394;28;20052;-69
2022/07/23 03:57:07;;;;;;;7.32;4.70;;;12.30;99.90;;;;;;5067330;28;20479;-66
2022/07/23 03:59:33;;;;;;;10.70;5.53;;;12.30;99.90;;;;;;5083955;28;20083;-67
2022/07/23 04:01:59;;;;;;;12.10;6.18;;;12.30;99.90;;;;;;5083963;28;20056;-67
2022/07/23 04:04:26;;;;;;;12.70;6.80;;;12.40;99.90;;;;;;5035193;28;20438;-66
2022/07/23 04:06:52;;;;;;;12.43;6.30;;;12.40;99.90;;;;;;5071219;28;20082;-66
2022/07/23 04:09:18;;;;;;;11.52;6.70;;;12.50;99.90;;;;;;5037838;28;20045;-67
2022/07/23 04:11:44;;;;;;;11.68;6.68;;;12.50;99.90;;;;;;5087779;28;20434;-68
2022/07/23 04:14:10;;;;;;;14.07;6.75;;;12.60;99.90;;;;;;5053949;28;20045;-72
2022/07/23 04:16:36;;;;;;;9.45;6.13;;;12.70;99.90;;;;;;5037922;28;20056;-68
2022/07/23 04:19:04;;;;;;;11.02;6.65;;;12.80;99.90;;;;;;5055209;28;20041;-68
2022/07/23 04:21:30;;;;;;;12.10;6.53;;;12.90;99.90;;;;;;5087836;28;20501;-66
2022/07/23 04:23:56;;;;;;;13.68;6.25;;;13.00;99.90;;;;;;5037632;28;20060;-69
2022/07/23 04:26:22;;;;;;;14.93;6.57;;;13.00;99.90;;;;;;5070646;28;20049;-67
2022/07/23 04:28:48;;;;;;;13.18;6.20;;;13.20;99.90;;;;;;5037433;28;20051;-67
2022/07/23 04:31:14;;;;;;;12.70;6.00;;;13.20;99.90;;;;;;5070751;28;20128;-67
2022/07/23 04:33:40;;;;;;;12.73;6.88;;;13.30;99.90;;;;;;5087742;28;20131;-67
2022/07/23 04:36:06;;;;;;;9.35;5.88;;;13.40;99.90;;;;;;5053071;28;20061;-67
2022/07/23 04:38:32;;;;;;;9.07;6.05;;;13.40;99.90;;;;;;5054134;28;20491;-66
2022/07/23 04:40:58;;;;;;;9.57;5.97;;;13.50;99.90;;;;;;5087394;28;20051;-67
2022/07/23 04:43:24;;;;;;;13.07;6.47;;;13.60;99.90;;;;;;5087459;28;20045;-66
2022/07/23 04:45:50;;;;;;;12.20;6.90;;;13.60;99.90;;;;;;5086931;28;20114;-66
2022/07/23 04:48:16;;;;;;;10.35;6.00;;;13.70;99.90;;;;;;5070411;28;20081;-66
2022/07/23 04:50:42;;;;;;;10.15;6.55;;;13.80;99.90;;;;;;5037014;28;20396;-69
2022/07/23 04:53:08;;;;;;;10.95;6.18;;;13.90;99.90;;;;;;5070459;28;20106;-67
2022/07/23 04:55:34;;;;;;;12.73;6.00;;;13.90;99.90;;;;;;5069611;28;20114;-67
2022/07/23 04:58:00;;;;;;;14.30;6.45;;;14.00;99.90;;;;;;5087195;28;20562;-67
2022/07/23 05:00:26;;;;;;;9.98;5.50;;;14.10;99.90;;;;;;5053539;28;20056;-69
2022/07/23 05:02:52;;;;;;;12.60;5.07;;;14.20;99.90;;;;;;5087142;28;20041;-66
2022/07/23 05:05:21;;;;;;;8.57;5.03;;;14.30;99.90;;;;;;5086501;28;20052;-68
2022/07/23 05:07:47;;;;;;;9.25;5.32;;;14.30;99.90;;;;;;5036857;28;20555;-67
2022/07/23 05:10:12;;;;;;;10.73;5.47;;;14.40;99.90;;;;;;5086824;28;20128;-67
2022/07/23 05:12:38;;;;;;;9.15;4.88;;;14.50;99.90;;;;;;5036853;28;20398;-66
2022/07/23 05:15:05;;;;;;;7.82;4.75;;;14.50;99.90;;;;;;5086109;28;20041;-66
2022/07/23 05:17:31;;;;;;;7.22;4.40;;;14.70;99.90;;;;;;5086952;28;20049;-66
2022/07/23 05:19:57;;;;;;;9.90;4.75;;;14.70;99.90;;;;;;5069797;28;20053;-68
2022/07/23 05:22:22;;;;;;;8.88;4.85;;;14.80;99.90;;;;;;5086882;28;20037;-66
2022/07/23 05:24:48;;;;;;;9.30;4.60;;;14.80;99.90;;;;;;5086244;28;20045;-67
2022/07/23 05:27:14;;;;;;;9.23;4.10;;;15.00;99.90;;;;;;5069728;28;20106;-66
2022/07/23 05:29:40;;;;;;;10.40;4.50;;;15.00;99.90;;;;;;5069187;28;20044;-70
2022/07/23 05:32:06;;;;;;;7.50;4.15;;;15.10;99.90;;;;;;5053131;28;20067;-67
2022/07/23 05:34:32;;;;;;;7.47;4.00;;;15.10;99.90;;;;;;5085735;28;20506;-66
2022/07/23 05:36:58;;;;;;;9.13;4.72;;;15.20;99.90;;;;;;5086449;28;20079;-68
2022/07/23 05:39:24;;;;;;;8.27;4.50;;;15.30;99.90;;;;;;5086459;28;20431;-67
2022/07/23 05:41:50;;;;;;;9.75;4.25;;;15.40;99.90;;;;;;5086324;28;20053;-67
2022/07/23 05:44:16;;;;;;;8.38;3.72;;;15.40;99.90;;;;;;5068844;28;20053;-68
2022/07/23 05:46:41;;;;;;;7.47;4.10;;;15.50;99.90;;;;;;5086241;28;20045;-66
2022/07/23 05:49:07;;;;;;;7.63;4.00;;;15.60;99.90;;;;;;5069016;28;20052;-66
2022/07/23 05:51:33;;;;;;;7.68;3.75;;;15.60;99.90;;;;;;5085989;28;20041;-68
2022/07/23 05:53:59;;;;;;;6.28;3.50;;;15.60;99.90;;;;;;5085625;28;20049;-67
2022/07/23 05:56:25;;;;;;;5.68;3.60;;;15.70;99.90;;;;;;5086145;28;20049;-67
2022/07/23 05:58:54;;;;;;;5.40;3.88;;;15.70;99.90;;;;;;5086079;28;20049;-67
2022/07/23 06:01:20;;;;;;;8.35;3.50;;;15.80;99.90;;;;;;5052377;28;20045;-66
2022/07/23 06:03:46;;;;;;;5.82;3.33;;;15.80;99.90;;;;;;5052354;28;20468;-67
2022/07/23 06:06:12;;;;;;;7.80;3.38;;;15.90;99.90;;;;;;5052053;28;20525;-67
2022/07/23 06:08:38;;;;;;;6.60;3.67;;;16.00;99.90;;;;;;5085601;28;20049;-69
2022/07/23 06:11:03;;;;;;;8.88;3.60;;;16.00;99.90;;;;;;5085911;28;20049;-67
2022/07/23 06:13:29;;;;;;;6.68;3.35;;;16.10;99.90;;;;;;5035594;28;20044;-67
2022/07/23 06:15:55;;;;;;;9.18;3.58;;;16.20;99.90;;;;;;5068248;28;20049;-66
2022/07/23 06:18:21;;;;;;;6.07;3.75;;;16.20;99.90;;;;;;5068644;28;20049;-66
2022/07/23 06:20:47;;;;;;;7.80;3.45;;;16.30;99.90;;;;;;5035476;28;20483;-67
2022/07/23 06:23:13;;;;;;;7.30;3.08;;;16.30;99.90;;;;;;5068333;28;20053;-69
2022/07/23 06:25:39;;;;;;;7.65;2.72;;;16.50;99.90;;;;;;5028016;28;20060;-67
2022/07/23 06:28:05;;;;;;;6.45;3.20;;;16.60;99.90;;;;;;5061654;28;20045;-68
2022/07/23 06:30:31;;;;;;;5.63;3.08;;;16.60;99.90;;;;;;5085526;28;20052;-67
2022/07/23 06:32:57;;;;;;;7.25;3.15;;;16.70;99.90;;;;;;5085271;28;20048;-67
2022/07/23 06:35:23;;;;;;;5.28;2.90;;;16.80;99.90;;;;;;5051059;28;20061;-67
2022/07/23 06:37:49;;;;;;;3.60;2.42;;;16.80;99.90;;;;;;5085034;28;20055;-67
2022/07/23 06:40:16;;;;;;;7.60;3.00;;;16.70;99.90;;;;;;5051647;28;20048;-67
2022/07/23 06:42:42;;;;;;;5.82;2.75;;;16.90;99.90;;;;;;5068364;28;20164;-67
2022/07/23 06:45:08;;;;;;;5.07;2.42;;;17.00;99.90;;;;;;5067799;28;20053;-67
2022/07/23 06:47:34;;;;;;;4.80;2.22;;;17.20;99.90;;;;;;5084811;28;20041;-68
2022/07/23 06:50:04;;;;;;;5.97;2.20;;;17.40;99.90;;;;;;5084848;28;20118;-67
2022/07/23 06:52:30;;;;;;;2.90;1.90;;;17.60;99.90;;;;;;5051286;28;20378;-67
2022/07/23 06:54:56;;;;;;;3.63;2.25;;;17.70;99.90;;;;;;5084332;28;20418;-67
2022/07/23 06:57:23;;;;;;;5.35;1.95;;;17.80;99.90;;;;;;5084938;28;20045;-67
2022/07/23 06:59:49;;;;;;;5.30;1.92;;;17.70;99.90;;;;;;5084935;28;20056;-67
2022/07/23 07:02:15;;;;;;;5.20;2.00;;;17.80;99.90;;;;;;5084662;28;20049;-67
2022/07/23 07:04:41;;;;;;;2.75;1.58;;;17.80;99.90;;;;;;5067175;28;20128;-70
2022/07/23 07:07:07;;;;;;;2.47;1.42;;;17.90;99.90;;;;;;5084844;28;20067;-67
2022/07/23 07:09:33;;;;;;;2.40;1.60;;;17.80;99.90;;;;;;5034465;28;20048;-66
2022/07/23 07:12:00;;;;;;;3.55;1.50;;;17.80;99.90;;;;;;5084217;28;20048;-67
2022/07/23 07:14:26;;;;;;;2.22;1.30;;;17.90;99.90;;;;;;5083950;28;20128;-68
2022/07/23 07:16:52;;;;;;;3.35;1.35;;;17.90;99.90;;;;;;5034083;28;20556;-68
2022/07/23 07:19:18;;;;;;;3.25;1.30;;;17.90;99.90;;;;;;5034443;28;20049;-67
2022/07/23 07:21:44;;;;;;;3.70;1.30;;;17.90;99.90;;;;;;5084327;28;20045;-67
2022/07/23 07:24:14;;;;;;;2.28;1.48;;;17.90;99.90;;;;;;5083908;28;20538;-71
2022/07/23 07:26:40;;;;;;;2.80;1.25;;;17.90;99.90;;;;;;5034385;28;20076;-67
2022/07/23 07:29:06;;;;;;;1.30;1.20;;;17.90;99.90;;;;;;5034457;28;20453;-67
2022/07/23 07:31:32;;;;;;;2.05;1.00;;;18.00;99.90;;;;;;5084362;28;20102;-67
2022/07/23 07:33:59;;;;;;;8.77;1.15;;;17.90;99.90;;;;;;5076160;28;20567;-67
2022/07/23 07:36:25;;;;;;;3.05;0.77;;;18.10;99.90;;;;;;5037567;28;20053;-66
2022/07/23 07:38:51;;;;;;;1.58;0.93;;;18.20;99.90;;;;;;5033350;28;20051;-67
2022/07/23 07:41:22;;;;;;;2.15;0.98;;;18.20;99.90;;;;;;5033884;28;20049;-67
2022/07/23 07:43:49;;;;;;;1.27;1.10;;;18.20;99.90;;;;;;5083697;28;20049;-66
2022/07/23 07:46:15;;;;;;;1.80;0.80;;;18.30;99.90;;;;;;5050441;28;20047;-69
2022/07/23 07:48:41;;;;;;;3.05;0.90;;;18.20;99.90;;;;;;5084100;28;20403;-70
2022/07/23 07:51:07;;;;;;;2.20;0.90;;;18.30;99.90;;;;;;5050519;28;20052;-67
2022/07/23 07:53:33;;;;;;;1.45;0.80;;;18.30;99.90;;;;;;5050548;28;20475;-67
2022/07/23 07:55:59;;;;;;;1.73;0.50;;;18.50;99.90;;;;;;5083256;28;20055;-69
2022/07/23 07:58:25;;;;;;;0.85;0.70;;;18.60;99.90;;;;;;5083803;28;20037;-69
2022/07/23 08:00:51;;;;;;;2.17;0.65;;;18.80;99.90;;;;;;5083963;28;20114;-68
2022/07/23 08:03:17;;;;;;;1.27;0.60;;;19.00;99.90;;;;;;5050273;28;20096;-68
2022/07/23 08:05:43;;;;;;;0.98;0.65;;;19.30;99.90;;;;;;5049768;28;20080;-67
2022/07/23 08:08:14;;;;;;;0.95;0.70;;;19.20;99.90;;;;;;5034170;28;20067;-67
2022/07/23 08:10:41;;;;;;;0.93;0.63;;;19.10;99.90;;;;;;5033920;28;20132;-67
2022/07/23 08:13:07;;;;;;;1.52;0.60;;;19.10;99.90;;;;;;5033761;28;20438;-68
2022/07/23 08:15:33;;;;;;;1.85;0.60;;;19.20;99.90;;;;;;5083150;28;20041;-68
2022/07/23 08:17:59;;;;;;;1.90;0.75;;;19.30;99.90;;;;;;5083889;28;20045;-67
2022/07/23 08:20:26;;;;;;;2.15;0.80;;;19.10;99.90;;;;;;5083775;28;20091;-67
2022/07/23 08:22:54;;;;;;;3.75;0.93;;;19.10;99.90;;;;;;5033331;28;20487;-68
2022/07/23 08:25:40;;;;;;;1.98;0.68;;;19.10;99.90;;;;;;5049725;28;20131;-67
2022/07/23 08:28:09;;;;;;;1.83;0.60;;;18.90;99.90;;;;;;5033611;28;20045;-68
2022/07/23 08:30:36;;;;;;;0.80;0.70;;;18.80;99.90;;;;;;5050251;28;20051;-67
2022/07/23 08:33:12;;;;;;;0.85;0.60;;;18.70;99.90;;;;;;5035000;28;20059;-67
2022/07/23 08:35:42;;;;;;;0.93;0.60;;;18.90;99.90;;;;;;5059763;28;20057;-67
2022/07/23 08:38:10;;;;;;;2.05;0.80;;;19.50;99.90;;;;;;5050241;28;20088;-68
2022/07/23 08:40:39;;;;;;;1.55;0.70;;;20.00;99.90;;;;;;5083811;28;20077;-66
2022/07/23 08:43:07;;;;;;;0.50;0.50;;;20.40;99.90;;;;;;5050068;28;20128;-67
2022/07/23 08:45:38;;;;;;;0.60;0.60;;;20.60;99.90;;;;;;5031679;28;20045;-68
2022/07/23 08:48:07;;;;;;;1.13;0.75;;;20.80;99.90;;;;;;5048374;28;20045;-68
2022/07/23 08:50:36;;;;;;;1.42;0.60;;;20.90;99.90;;;;;;5032847;28;20516;-67
2022/07/23 08:53:05;;;;;;;1.13;0.60;;;20.90;99.90;;;;;;5037308;28;20048;-68
2022/07/23 08:55:31;;;;;;;1.40;0.50;;;20.90;99.90;;;;;;5079017;28;20037;-68
2022/07/23 08:57:56;;;;;;;1.42;0.70;;;20.90;99.90;;;;;;5036455;28;20056;-68
2022/07/23 09:00:23;;;;;;;1.02;0.73;;;21.00;99.90;;;;;;5036753;28;20041;-68
2022/07/23 09:02:50;;;;;;;0.77;0.50;;;21.00;99.90;;;;;;5053274;28;20479;-69
2022/07/23 09:05:17;;;;;;;2.35;0.80;;;20.80;99.90;;;;;;5085827;28;20053;-67
2022/07/23 09:08:11;;;;;;;1.20;0.60;;;20.80;99.90;;;;;;5053215;28;20083;-67
2022/07/23 09:10:50;;;;;;;2.05;0.70;;;20.60;99.90;;;;;;5053367;28;20064;-67
2022/07/23 09:13:32;;;;;;;1.13;0.80;;;20.60;99.90;;;;;;5053209;28;20140;-68
2022/07/23 09:16:08;;;;;;;1.58;0.77;;;20.50;99.90;;;;;;5085412;28;20051;-67
2022/07/23 09:18:43;;;;;;;2.75;0.93;;;20.40;99.90;;;;;;5053230;28;20052;-67
2022/07/23 09:21:28;;;;;;;2.83;1.00;;;20.60;99.90;;;;;;5052506;28;20440;-68
2022/07/23 09:23:58;;;;;;;1.75;0.73;;;20.70;99.90;;;;;;5036086;28;20114;-68
2022/07/23 09:26:33;;;;;;;3.10;0.80;;;21.00;99.90;;;;;;5052845;28;20395;-68
2022/07/23 09:29:08;;;;;;;1.10;1.00;;;21.10;99.90;;;;;;5047215;28;20052;-68
2022/07/23 09:31:42;;;;;;;1.95;0.73;;;21.40;99.90;;;;;;5051809;28;20160;-67
2022/07/23 09:34:14;;;;;;;0.85;0.70;;;21.40;99.90;;;;;;5045086;28;20052;-68
2022/07/23 09:36:41;;;;;;;1.00;0.65;;;21.50;99.90;;;;;;5053168;28;20068;-70
2022/07/23 09:39:07;;;;;;;2.95;0.98;;;21.50;99.90;;;;;;5086359;28;20433;-69
2022/07/23 09:41:43;;;;;;;2.47;0.82;;;21.90;99.90;;;;;;5086344;28;20033;-68
2022/07/23 09:44:16;;;;;;;2.08;0.88;;;22.00;99.90;;;;;;5052156;28;20500;-68
2022/07/23 09:46:43;;;;;;;1.50;0.80;;;21.90;99.90;;;;;;5051688;28;20040;-69
2022/07/23 09:49:21;;;;;;;1.05;0.63;;;21.90;99.90;;;;;;5085081;28;20041;-68
2022/07/23 09:51:57;;;;;;;2.35;0.70;;;22.00;99.90;;;;;;5078602;28;20056;-68
2022/07/23 09:54:44;;;;;;;1.55;0.90;;;21.90;99.90;;;;;;5034385;28;20380;-68
2022/07/23 09:57:15;;;;;;;2.13;0.57;;;21.70;99.90;;;;;;5069452;28;20154;-69
2022/07/23 09:59:42;;;;;;;2.38;0.75;;;21.60;99.90;;;;;;5049363;28;20554;-70
2022/07/23 10:02:11;;;;;;;1.63;0.60;;;21.50;99.90;;;;;;5066378;28;20453;-68
2022/07/23 10:04:38;;;;;;;3.30;0.80;;;21.80;99.90;;;;;;5051686;28;20041;-69
2022/07/23 10:07:10;;;;;;;1.10;0.70;;;21.70;99.90;;;;;;5018453;28;20158;-69
2022/07/23 10:09:39;;;;;;;1.67;0.73;;;21.70;99.90;;;;;;5085936;28;20053;-69
2022/07/23 10:14:45;;;;;;;2.30;0.70;;;21.90;98.40;;;;;;5083813;28;20047;-68
2022/07/23 10:17:11;;;;;;;1.10;0.70;;;21.90;98.80;;;;;;5034950;28;20044;-69
2022/07/23 10:19:39;;;;;;;2.63;0.80;;;22.20;98.20;;;;;;5067328;28;20037;-69
2022/07/23 10:22:11;;;;;;;2.05;0.80;;;22.30;97.90;;;;;;5051913;28;20127;-68
2022/07/23 10:24:56;;;;;;;1.45;0.73;;;22.00;97.20;;;;;;5051798;28;20049;-68
2022/07/23 10:27:45;;;;;;;1.10;0.70;;;22.20;96.00;;;;;;5028596;28;20395;-69
2022/07/23 10:30:21;;;;;;;1.25;0.65;;;22.30;97.30;;;;;;5037017;28;20131;-69
2022/07/23 10:33:12;;;;;;;2.22;0.80;;;22.60;97.10;;;;;;5051806;28;20171;-68
2022/07/23 10:36:01;;;;;;;1.63;0.77;;;22.70;94.20;;;;;;5024504;28;20616;-70
2022/07/23 10:38:35;;;;;;;2.05;0.90;;;22.70;95.20;;;;;;5081622;28;20055;-71
2022/07/23 10:41:04;;;;;;;2.65;0.80;;;22.70;96.10;;;;;;5048312;28;20052;-69
2022/07/23 10:43:31;;;;;;;1.58;1.05;;;22.60;95.50;;;;;;5032661;28;20040;-68
2022/07/23 10:49:27;;;;;;;1.73;0.80;;;22.50;93.40;;;;;;5009816;28;20059;-68
2022/07/23 10:52:30;;;;;;;0.70;0.70;;;22.60;92.80;;;;;;5047504;28;20136;-68
2022/07/23 10:55:16;;;;;;;1.95;0.90;;;22.50;92.20;;;;;;5047060;28;20110;-68
2022/07/23 10:57:50;;;;;;;0.85;0.80;;;22.80;94.50;;;;;;5027958;28;20044;-69
2022/07/23 11:00:28;;;;;;;1.17;0.80;;;23.10;93.80;;;;;;5046221;28;20060;-68
2022/07/23 11:03:06;;;;;;;3.05;0.85;;;22.90;92.10;;;;;;5033303;28;20099;-69
2022/07/23 11:05:44;;;;;;;1.85;0.93;;;23.00;93.30;;;;;;5079284;28;20045;-69
2022/07/23 11:08:14;;;;;;;1.20;0.77;;;22.80;92.10;;;;;;5051905;28;20045;-69
2022/07/23 11:10:42;;;;;;;1.40;0.82;;;23.00;93.00;;;;;;5081337;28;20041;-72
2022/07/23 11:13:27;;;;;;;1.17;0.77;;;23.10;92.30;;;;;;5044745;28;20037;-71
2022/07/23 11:16:02;;;;;;;0.95;0.70;;;23.00;92.30;;;;;;5081604;28;20055;-70
2022/07/23 11:18:43;;;;;;;1.60;0.90;;;22.80;91.40;;;;;;5046454;28;21277;-69
2022/07/23 11:21:28;;;;;;;1.15;0.70;;;22.90;92.80;;;;;;5076729;28;20053;-68
2022/07/23 11:24:03;;;;;;;2.45;0.90;;;22.90;93.30;;;;;;5044324;28;20049;-68
2022/07/23 11:26:41;;;;;;;2.08;1.02;;;22.90;91.70;;;;;;5044933;28;20081;-67
2022/07/23 11:29:30;;;;;;;1.88;1.00;;;22.80;90.80;;;;;;5079768;28;20077;-68
2022/07/23 11:32:00;;;;;;;3.58;1.00;;;22.60;91.10;;;;;;5049901;28;20095;-69
2022/07/23 11:34:25;;;;;;;1.45;0.82;;;22.60;92.70;;;;;;5062609;28;20048;-68
2022/07/23 11:36:51;;;;;;;2.47;1.05;;;22.70;93.20;;;;;;5045803;28;20099;-68
2022/07/23 11:39:19;;;;;;;1.88;0.90;;;22.70;93.20;;;;;;5077473;28;20041;-68
2022/07/23 11:41:45;;;;;;;3.40;1.05;;;22.50;93.10;;;;;;5046502;28;20053;-68
2022/07/23 11:44:34;;;;;;;1.35;1.02;;;22.40;93.30;;;;;;5065110;28;20048;-71
2022/07/23 11:47:06;;;;;;;2.50;1.10;;;22.40;94.00;;;;;;5048758;28;20049;-69
2022/07/23 11:49:34;;;;;;;3.20;1.20;;;22.40;94.10;;;;;;5049214;28;20036;-68
2022/07/23 11:52:11;;;;;;;6.80;1.42;;;22.70;94.50;;;;;;5059825;28;20076;-72
2022/07/23 11:54:48;;;;;;;2.85;1.30;;;22.70;94.20;;;;;;5050049;28;20077;-69
2022/07/23 11:57:14;;;;;;;2.95;1.20;;;22.70;93.50;;;;;;5080149;28;20037;-69
2022/07/23 11:59:43;;;;;;;3.50;1.25;;;22.70;94.10;;;;;;5049448;28;20496;-71
2022/07/23 12:02:09;;;;;;;4.82;1.35;;;22.50;93.80;;;;;;5050393;28;20150;-69
2022/07/23 12:04:43;;;;;;;2.15;1.23;;;22.40;93.90;;;;;;5081694;28;20044;-68
2022/07/23 12:07:34;;;;;;;4.72;1.50;;;22.20;93.50;;;;;;5047891;28;20045;-69
2022/07/23 12:10:02;;;;;;;2.72;1.40;;;22.00;93.90;;;;;;5040872;28;20418;-71
2022/07/23 12:12:36;;;;;;;3.72;1.52;;;22.10;94.50;;;;;;5060112;28;20048;-68
2022/07/23 12:15:04;;;;;;;2.42;1.70;;;21.90;94.20;;;;;;5049599;28;20052;-68
2022/07/23 12:17:33;;;;;;;2.55;1.50;;;21.80;94.60;;;;;;5032822;28;20447;-69
2022/07/23 12:20:02;;;;;;;1.55;1.20;;;21.80;95.00;;;;;;5030462;28;20059;-69
2022/07/23 12:22:39;;;;;;;3.95;1.38;;;21.70;95.50;;;;;;5039349;28;20051;-69
2022/07/23 12:25:08;;;;;;;2.72;1.30;;;21.70;96.30;;;;;;5057068;28;20055;-70
2022/07/23 12:27:35;;;;;;;3.28;1.52;;;21.60;96.50;;;;;;5036891;28;20037;-68
2022/07/23 12:30:21;;;;;;;2.78;1.40;;;21.50;96.50;;;;;;5052424;28;20049;-69
2022/07/23 12:32:48;;;;;;;3.60;1.50;;;21.50;97.10;;;;;;5059051;28;20502;-68
2022/07/23 12:35:15;;;;;;;2.22;1.13;;;21.60;97.60;;;;;;5052445;28;20052;-68
2022/07/23 12:37:43;;;;;;;5.13;1.60;;;21.60;97.70;;;;;;5053543;28;20084;-71
2022/07/23 12:40:26;;;;;;;6.32;1.85;;;21.80;97.90;;;;;;5087741;28;20041;-68
2022/07/23 12:42:55;;;;;;;1.83;1.20;;;22.20;97.20;;;;;;5032816;28;20049;-69
2022/07/23 12:45:21;;;;;;;2.95;1.60;;;22.80;98.80;;;;;;5033878;28;20483;-68
2022/07/23 12:47:54;;;;;;;3.83;1.80;;;23.10;98.20;;;;;;5048602;28;20049;-68
2022/07/23 12:50:47;;;;;;;2.75;1.45;;;23.10;97.00;;;;;;5026974;28;20045;-69
2022/07/23 12:53:16;;;;;;;2.22;1.33;;;23.30;95.80;;;;;;5045090;28;20056;-68
2022/07/23 12:55:44;;;;;;;3.72;1.73;;;23.40;95.10;;;;;;5053271;28;20384;-69
2022/07/23 12:58:16;;;;;;;3.28;1.65;;;23.30;95.20;;;;;;5052101;28;20222;-69